createdAt,value
2022-08-27T00:04:48.116Z,100448.59
2022-08-27T00:09:44.797Z,100443.19
2022-08-27T00:14:41.397Z,100451.94
2022-08-27T00:19:38.740Z,100456.31
2022-08-27T00:24:35.566Z,100456.91
2022-08-27T00:29:35.101Z,100459.22
2022-08-27T00:34:31.895Z,100468.03
2022-08-27T00:39:29.128Z,100469.50
2022-08-27T00:44:25.862Z,100472.50
2022-08-27T00:49:24.238Z,100486.47
2022-08-27T00:54:20.923Z,100475.59
2022-08-27T00:59:20.616Z,100484.22
2022-08-27T01:04:17.183Z,100483.97
2022-08-27T01:09:14.876Z,100474.56
2022-08-27T01:14:11.486Z,100482.38
2022-08-27T01:19:10.771Z,100481.13
2022-08-27T01:24:13.638Z,100479.16
2022-08-27T01:29:11.176Z,100481.69
2022-08-27T01:34:08.138Z,100483.66
2022-08-27T01:39:05.406Z,100488.00
2022-08-27T01:44:02.157Z,100491.97
2022-08-27T01:48:59.421Z,100485.03
2022-08-27T01:53:55.933Z,100478.31
2022-08-27T01:58:52.519Z,100481.66
2022-08-27T02:03:49.145Z,100487.72
2022-08-27T02:08:46.388Z,100493.41
2022-08-27T02:13:43.006Z,100495.31
2022-08-27T02:18:41.667Z,100490.59
2022-08-27T02:23:41.443Z,100492.13
2022-08-27T02:28:38.773Z,100498.22
2022-08-27T02:33:35.456Z,100496.38
2022-08-27T02:38:32.027Z,100498.22
2022-08-27T02:43:28.712Z,100495.00
2022-08-27T02:48:26.098Z,100494.53
2022-08-27T02:53:22.832Z,100491.66
2022-08-27T02:58:20.621Z,100484.28
2022-08-27T03:03:17.296Z,100493.63
2022-08-27T03:08:14.495Z,100491.06
2022-08-27T03:13:11.075Z,100495.13
2022-08-27T03:18:19.559Z,100503.00
2022-08-27T03:23:17.584Z,100501.00
2022-08-27T03:28:22.583Z,100495.94
2022-08-27T03:33:21.005Z,100504.84
2022-08-27T03:38:18.299Z,100504.56
2022-08-27T03:43:15.406Z,100508.19
2022-08-27T03:48:12.724Z,100512.47
2022-08-27T03:53:09.992Z,100513.56
2022-08-27T03:58:07.395Z,100520.50
2022-08-27T04:03:05.327Z,100522.13
2022-08-27T04:08:02.088Z,100518.63
2022-08-27T04:12:58.705Z,100523.16
2022-08-27T04:17:56.001Z,100524.84
2022-08-27T04:22:52.697Z,100523.66
2022-08-27T04:27:49.251Z,100532.88
2022-08-27T04:32:45.858Z,100532.44
2022-08-27T04:37:43.092Z,100535.66
2022-08-27T04:42:39.631Z,100540.91
2022-08-27T04:47:36.390Z,100540.41
2022-08-27T04:52:32.963Z,100540.63
2022-08-27T04:57:30.498Z,100550.41
2022-08-27T05:02:27.072Z,100547.31
2022-08-27T05:07:23.653Z,100563.13
2022-08-27T05:12:20.159Z,100570.13
2022-08-27T05:17:17.320Z,100568.97
2022-08-27T05:22:13.858Z,100568.03
2022-08-27T05:27:12.535Z,100571.06
2022-08-27T05:32:09.731Z,100573.72
2022-08-27T05:37:07.214Z,100589.75
2022-08-27T05:42:04.167Z,100599.69
2022-08-27T05:47:00.679Z,100601.78
2022-08-27T05:51:57.248Z,100601.78
2022-08-27T05:56:54.423Z,100594.53
2022-08-27T06:01:51.760Z,100590.63
2022-08-27T06:06:49.274Z,100577.31
2022-08-27T06:11:45.872Z,100597.38
2022-08-27T06:16:43.421Z,100601.41
2022-08-27T06:21:40.643Z,100605.16
2022-08-27T06:26:37.267Z,100607.91
2022-08-27T06:31:34.858Z,100616.47
2022-08-27T06:36:32.063Z,100621.22
2022-08-27T06:41:28.743Z,100615.84
2022-08-27T06:46:27.691Z,100616.38
2022-08-27T06:51:25.669Z,100624.69
2022-08-27T06:56:23.335Z,100627.56
2022-08-27T07:01:21.717Z,100630.78
2022-08-27T07:06:18.302Z,100629.91
2022-08-27T07:11:15.219Z,100637.66
2022-08-27T07:16:13.142Z,100634.81
2022-08-27T07:21:09.814Z,100639.56
2022-08-27T07:26:07.454Z,100637.53
2022-08-27T07:31:04.175Z,100634.47
2022-08-27T07:36:01.520Z,100632.44
2022-08-27T07:40:58.506Z,100631.88
2022-08-27T07:45:56.597Z,100622.91
2022-08-27T07:50:53.487Z,100627.75
2022-08-27T07:55:50.988Z,100631.88
2022-08-27T08:00:47.563Z,100624.34
2022-08-27T08:05:44.109Z,100629.63
2022-08-27T08:10:40.693Z,100628.84
2022-08-27T08:15:38.310Z,100623.63
2022-08-27T08:20:56.497Z,100629.66
2022-08-27T08:25:51.428Z,100626.03
2022-08-27T08:30:48.877Z,100621.28
2022-08-27T08:35:45.595Z,100625.00
2022-08-27T08:40:43.064Z,100627.34
2022-08-27T08:45:42.205Z,100626.94
2022-08-27T08:50:49.602Z,100619.50
2022-08-27T08:55:48.080Z,100621.94
2022-08-27T09:00:45.621Z,100616.44
2022-08-27T09:05:46.186Z,100616.34
2022-08-27T09:10:44.681Z,100608.81
2022-08-27T09:15:41.287Z,100611.38
2022-08-27T09:20:38.563Z,100610.34
2022-08-27T09:25:41.052Z,100601.66
2022-08-27T09:30:41.734Z,100606.50
2022-08-27T09:35:40.632Z,100609.09
2022-08-27T09:40:41.352Z,100602.28
2022-08-27T09:45:46.289Z,100605.34
2022-08-27T09:50:46.613Z,100605.31
2022-08-27T09:55:45.567Z,100598.72
2022-08-27T10:00:42.715Z,100607.78
2022-08-27T10:05:42.693Z,100608.22
2022-08-27T10:10:43.249Z,100600.72
2022-08-27T10:15:47.755Z,100598.00
2022-08-27T10:20:53.959Z,100604.91
2022-08-27T10:25:54.801Z,100603.66
2022-08-27T10:31:02.260Z,100604.91
2022-08-27T10:36:01.575Z,100607.56
2022-08-27T10:41:02.284Z,100605.34
2022-08-27T10:46:04.477Z,100609.78
2022-08-27T10:51:06.014Z,100603.38
2022-08-27T10:56:10.137Z,100605.47
2022-08-27T11:01:16.612Z,100595.91
2022-08-27T11:06:15.498Z,100599.81
2022-08-27T11:11:57.155Z,100595.91
2022-08-27T11:16:35.749Z,100586.22
2022-08-27T11:21:34.781Z,100582.44
2022-08-27T11:26:33.137Z,100583.72
2022-08-27T11:31:34.627Z,100578.44
2022-08-27T11:36:58.119Z,100579.31
2022-08-27T11:42:00.539Z,100577.84
2022-08-27T11:47:07.959Z,100577.50
2022-08-27T11:52:07.029Z,100576.94
2022-08-27T11:57:13.562Z,100570.91
2022-08-27T12:02:13.109Z,100558.81
2022-08-27T12:07:24.501Z,100560.59
2022-08-27T12:12:25.460Z,100551.59
2022-08-27T12:17:28.153Z,100545.56
2022-08-27T12:22:56.811Z,100539.50
2022-08-27T12:27:58.541Z,100539.34
2022-08-27T12:32:56.304Z,100535.78
2022-08-27T12:37:56.976Z,100537.03
2022-08-27T12:43:05.675Z,100532.09
2022-08-27T12:48:02.386Z,100528.53
2022-08-27T12:53:03.243Z,100533.88
2022-08-27T12:58:05.335Z,100527.56
2022-08-27T13:03:19.839Z,100523.94
2022-08-27T13:08:21.293Z,100527.63
2022-08-27T13:13:19.601Z,100513.03
2022-08-27T13:18:17.059Z,100520.91
2022-08-27T13:23:19.830Z,100522.16
2022-08-27T13:28:26.321Z,100527.81
2022-08-27T13:33:24.155Z,100523.41
2022-08-27T13:38:22.646Z,100526.97
2022-08-27T13:43:21.595Z,100529.72
2022-08-27T13:48:18.889Z,100533.00
2022-08-27T13:53:48.852Z,100525.94
2022-08-27T13:58:46.183Z,100520.09
2022-08-27T14:03:47.307Z,100527.41
2022-08-27T14:08:43.938Z,100516.88
2022-08-27T14:13:43.469Z,100516.47
2022-08-27T14:18:58.924Z,100506.25
2022-08-27T14:23:56.212Z,100501.06
2022-08-27T14:28:53.953Z,100505.66
2022-08-27T14:33:53.494Z,100502.56
2022-08-27T14:38:51.216Z,100494.56
2022-08-27T14:43:49.266Z,100513.91
2022-08-27T14:48:51.685Z,100515.75
2022-08-27T14:53:50.559Z,100518.22
2022-08-27T14:58:47.500Z,100521.56
2022-08-27T15:03:46.403Z,100522.63
2022-08-27T15:08:44.716Z,100520.75
2022-08-27T15:13:42.365Z,100526.19
2022-08-27T15:18:39.017Z,100515.88
2022-08-27T15:23:36.944Z,100521.56
2022-08-27T15:28:33.541Z,100520.94
2022-08-27T15:33:30.892Z,100522.41
2022-08-27T15:38:27.539Z,100525.38
2022-08-27T15:43:25.104Z,100528.97
2022-08-27T15:48:21.767Z,100525.84
2022-08-27T15:53:21.458Z,100525.00
2022-08-27T15:58:18.155Z,100525.81
2022-08-27T16:03:16.168Z,100510.56
2022-08-27T16:08:13.914Z,100511.19
2022-08-27T16:13:11.259Z,100509.06
2022-08-27T16:18:09.962Z,100510.91
2022-08-27T16:23:07.294Z,100509.44
2022-08-27T16:28:04.165Z,100518.22
2022-08-27T16:33:01.780Z,100518.03
2022-08-27T16:37:58.378Z,100527.84
2022-08-27T16:42:55.023Z,100522.41
2022-08-27T16:48:09.729Z,100518.81
2022-08-27T16:53:08.429Z,100518.19
2022-08-27T16:58:09.028Z,100530.31
2022-08-27T17:03:06.603Z,100533.84
2022-08-27T17:08:04.805Z,100541.78
2022-08-27T17:13:04.168Z,100548.06
2022-08-27T17:18:02.285Z,100548.44
2022-08-27T17:22:59.647Z,100550.44
2022-08-27T17:27:59.944Z,100553.00
2022-08-27T17:32:58.113Z,100561.72
2022-08-27T17:37:57.989Z,100567.69
2022-08-27T17:42:54.584Z,100571.56
2022-08-27T17:47:51.430Z,100574.06
2022-08-27T17:52:48.764Z,100584.63
2022-08-27T17:57:45.768Z,100588.19
2022-08-27T18:02:43.816Z,100589.53
2022-08-27T18:07:40.429Z,100590.84
2022-08-27T18:12:39.168Z,100592.72
2022-08-27T18:17:36.222Z,100606.44
2022-08-27T18:22:38.829Z,100618.25
2022-08-27T18:27:39.839Z,100631.47
2022-08-27T18:32:36.502Z,100643.13
2022-08-27T18:37:33.219Z,100642.91
2022-08-27T18:42:30.689Z,100644.09
2022-08-27T18:47:28.015Z,100639.88
2022-08-27T18:52:24.607Z,100644.34
2022-08-27T18:57:21.237Z,100649.53
2022-08-27T19:02:19.929Z,100647.63
2022-08-27T19:07:17.312Z,100647.13
2022-08-27T19:12:14.074Z,100658.16
2022-08-27T19:17:16.587Z,100660.31
2022-08-27T19:22:13.219Z,100667.00
2022-08-27T19:27:10.592Z,100674.22
2022-08-27T19:32:07.250Z,100680.28
2022-08-27T19:37:04.962Z,100676.38
2022-08-27T19:42:01.516Z,100671.06
2022-08-27T19:46:58.992Z,100673.28
2022-08-27T19:51:55.602Z,100684.59
2022-08-27T19:56:52.111Z,100675.25
2022-08-27T20:01:52.200Z,100679.56
2022-08-27T20:06:51.569Z,100687.91
2022-08-27T20:11:49.842Z,100683.66
2022-08-27T20:16:46.623Z,100694.13
2022-08-27T20:21:44.452Z,100693.84
2022-08-27T20:26:41.939Z,100690.78
2022-08-27T20:31:38.790Z,100684.22
2022-08-27T20:36:35.557Z,100688.38
2022-08-27T20:41:32.136Z,100694.06
2022-08-27T20:46:29.961Z,100696.66
2022-08-27T20:51:26.882Z,100699.84
2022-08-27T20:56:23.424Z,100692.56
2022-08-27T21:01:20.142Z,100700.97
2022-08-27T21:06:17.453Z,100691.41
2022-08-27T21:11:14.757Z,100690.41
2022-08-27T21:16:11.610Z,100694.13
2022-08-27T21:21:08.532Z,100692.97
2022-08-27T21:26:09.265Z,100682.00
2022-08-27T21:31:06.432Z,100698.00
2022-08-27T21:36:04.086Z,100707.25
2022-08-27T21:41:00.672Z,100708.66
2022-08-27T21:45:58.115Z,100703.69
2022-08-27T21:50:54.757Z,100702.19
2022-08-27T21:55:52.152Z,100702.09
2022-08-27T22:00:49.863Z,100702.72
2022-08-27T22:05:47.604Z,100707.28
2022-08-27T22:10:45.700Z,100707.47
2022-08-27T22:15:42.359Z,100690.38
2022-08-27T22:20:39.769Z,100689.94
2022-08-27T22:25:37.182Z,100686.53
2022-08-27T22:30:33.996Z,100681.69
2022-08-27T22:35:30.806Z,100684.75
2022-08-27T22:40:28.316Z,100676.47
2022-08-27T22:45:27.090Z,100679.63
2022-08-27T22:50:23.952Z,100673.41
2022-08-27T22:55:21.941Z,100666.00
2022-08-27T23:00:20.747Z,100668.00
2022-08-27T23:05:18.681Z,100674.22
2022-08-27T23:10:16.892Z,100666.31
2022-08-27T23:15:14.115Z,100669.88
2022-08-27T23:20:11.401Z,100670.72
2022-08-27T23:25:27.921Z,100680.66
2022-08-27T23:30:27.411Z,100684.69
2022-08-27T23:35:25.782Z,100685.88
2022-08-27T23:40:24.174Z,100683.19
2022-08-27T23:45:22.231Z,100681.16
2022-08-27T23:50:19.485Z,100685.44
2022-08-27T23:55:16.034Z,100682.91
